< Typhoon 200523 2006 Season Typhoon 200602 >
Typhoon 200601 (CHANCHU)
General InformationTrack Information on Google MapsDetailed Wind InformationAccess Analytics MapList of All Images || NewsDisaster Info.WeblogTrackbackTyphoon FrontResourceGoogle EarthGE AnimationAtom FeedGeoJSON
Detalied Best Track (Time Zone = UTC)
Year Month Day Hour Lat. Long. Pressure (hPa) Wind (kt) Class Image Chart
2006 5 8 06 8.7 135.3 1004 0 2 Image Chart
2006 5 8 12 8.6 134.5 1006 0 2 Image Chart
2006 5 8 18 8.5 133.9 1004 0 2 Image Chart
2006 5 9 00 8.3 133.4 1006 0 2 Image Chart
2006 5 9 06 8.5 132.6 1004 0 2 Image Chart
2006 5 9 12 8.6 132.0 1000 35 3 Image Chart
2006 5 9 18 8.7 131.5 1000 35 3 Image Chart
2006 5 10 00 9.2 130.8 996 40 3 Image Chart
2006 5 10 06 9.7 129.9 990 45 3 Image Chart
2006 5 10 12 9.8 129.4 985 50 4 Image Chart
2006 5 10 18 10.3 129.0 985 50 4 Image Chart
2006 5 11 00 10.8 128.2 985 50 4 Image Chart
2006 5 11 06 11.5 127.0 985 50 4 Image Chart
2006 5 11 12 12.1 125.8 980 55 4 Image Chart
2006 5 11 18 12.4 124.5 985 50 4 Image Chart
2006 5 12 00 12.6 123.5 985 50 4 Image Chart
2006 5 12 06 13.0 122.6 980 55 4 Image Chart
2006 5 12 12 13.0 121.8 980 55 4 Image Chart
2006 5 12 18 12.9 121.2 985 50 4 Image Chart
2006 5 13 00 13.3 120.6 985 50 4 Image Chart
2006 5 13 06 13.9 119.5 980 55 4 Image Chart
2006 5 13 12 13.9 119.0 975 60 4 Image Chart
2006 5 13 18 13.8 118.2 970 65 5 Image Chart
2006 5 14 00 13.8 117.6 960 75 5 Image Chart
2006 5 14 06 13.9 116.6 950 80 5 Image Chart
2006 5 14 12 13.9 116.0 940 85 5 Image Chart
2006 5 14 18 13.8 115.5 935 90 5 Image Chart
2006 5 15 00 14.1 115.4 930 95 5 Image Chart
2006 5 15 06 14.8 115.3 930 95 5 Image Chart
2006 5 15 12 15.3 115.2 930 95 5 Image Chart
2006 5 15 18 15.9 115.0 930 95 5 Image Chart
2006 5 16 00 16.9 114.8 930 95 5 Image Chart
2006 5 16 06 17.8 114.9 935 90 5 Image Chart
2006 5 16 12 18.8 115.2 940 85 5 Image Chart
2006 5 16 18 19.5 115.4 940 85 5 Image Chart
2006 5 17 00 20.5 115.6 945 85 5 Image Chart
2006 5 17 06 21.3 116.1 950 80 5 Image Chart
2006 5 17 12 22.5 116.6 960 75 5 Image Chart
2006 5 17 18 23.5 117.2 975 60 4 Image Chart
2006 5 18 00 24.4 118.0 992 45 3 Image Chart
2006 5 18 06 25.9 119.2 996 40 3 Image Chart
2006 5 18 12 29.9 122.5 998 40 3 Image Chart
2006 5 18 18 31.4 123.4 998 40 3 Image Chart
2006 5 19 00 31.6 124.9 996 0 6 Image Chart
2006 5 19 06 32.2 126.8 996 0 6 Image Chart
2006 5 19 12 32.8 128.7 1000 0 6 Image Chart
Japan Meteorological Agency Best Track Data | Correction Date : 2006-08-16
< Typhoon 200523 2006 Season Typhoon 200602 >

Help